Weather reports worldwide

Advertisment
Fehmarnbelt/Grosstonne, Germany (10043): temperature & dewpoint: 12.01.2020 12:00:00 - 18.01.2020 12:00:00 (CET)Fehmarnbelt/Grosstonne, Germany (10043): water temperature: 12.01.2020 12:00:00 - 18.01.2020 12:00:00 (CET)Fehmarnbelt/Grosstonne, Germany (10043): wind speed: 12.01.2020 12:00:00 - 18.01.2020 12:00:00 (CET)Fehmarnbelt/Grosstonne, Germany (10043): wind direction: 12.01.2020 12:00:00 - 18.01.2020 12:00:00 (CET)Fehmarnbelt/Grosstonne, Germany (10043): reduced air pressure: 12.01.2020 12:00:00 - 18.01.2020 12:00:00 (CET)
Date & Time tt [°C] td [°C] tw [°C] ff [km/h] ff [kn] dd ppp [hPa]
18.01.2020 12:00:00 5,7 3,0 5,6 55 30 SW 1016,8
18.01.2020 11:00:00 5,5 2,7 5,6 59 32 WSW 1016,5
18.01.2020 10:00:00 6,0 2,9 5,6 52 28 SW 1016,0
18.01.2020 09:00:00 5,7 3,2 5,6 51 27 SW 1015,8
18.01.2020 08:00:00 5,7 3,0 5,6 55 30 SW 1015,2
18.01.2020 07:00:00 6,0 3,2 5,7 55 30 WSW 1014,5
18.01.2020 06:00:00 5,7 4,0 5,7 48 26 WSW 1014,2
18.01.2020 05:00:00 6,0 4,0 5,7 51 27 WSW 1013,6
18.01.2020 04:00:00 6,5 3,5 5,7 52 28 WSW 1013,3
18.01.2020 03:00:00 7,0 4,2 5,7 45 24 WSW 1012,8
18.01.2020 02:00:00 7,0 5,4 5,7 39 21 WSW 1012,6
18.01.2020 01:00:00 7,0 6,2 5,7 35 19 WSW 1011,9
18.01.2020 00:00:00 6,7 6,5 5,7 32 17 SW 1011,7
17.01.2020 23:00:00 7,2 6,5 5,7 31 17 SW 1011,5
17.01.2020 22:00:00 6,7 5,4 5,7 21 12 SSW 1011,5
17.01.2020 21:00:00 7,2 5,0 5,7 26 14 SSW 1011,5
17.01.2020 20:00:00 7,4 4,7 5,6 25 13 SSW 1011,7
17.01.2020 19:00:00 7,5 4,7 5,6 28 15 SSW 1011,9
17.01.2020 18:00:00 6,9 4,9 5,6 24 13 S 1012,5
17.01.2020 17:00:00 6,9 4,5 5,6 23 13 S 1012,6
17.01.2020 16:00:00 7,2 4,7 5,6 24 13 S 1012,6
17.01.2020 15:00:00 8,2 4,7 5,6 26 14 S 1012,7
17.01.2020 14:00:00 8,4 4,7 5,7 29 16 S 1013,5
17.01.2020 13:00:00 8,0 4,7 5,7 35 19 S 1014,2
17.01.2020 12:00:00 7,4 4,4 5,7 40 22 S 1015,1
17.01.2020 11:00:00 6,7 4,4 5,7 37 20 S 1016,0
17.01.2020 10:00:00 6,5 4,5 5,7 35 19 S 1016,7
17.01.2020 09:00:00 6,2 4,5 5,7 39 21 S 1017,0
17.01.2020 08:00:00 5,9 4,5 5,7 37 20 S 1017,2
17.01.2020 07:00:00 6,0 4,7 5,6 34 19 S 1017,7
17.01.2020 06:00:00 5,7 4,7 5,6 32 17 S 1018,4
17.01.2020 05:00:00 5,7 4,7 5,5 30 16 S 1019,2
17.01.2020 04:00:00 5,7 4,7 5,5 30 16 S 1020,0
17.01.2020 03:00:00 5,7 4,7 5,6 29 15 S 1020,7
17.01.2020 02:00:00 5,7 4,7 5,6 29 16 S 1021,3
17.01.2020 01:00:00 5,9 4,5 5,6 31 17 S 1021,6
17.01.2020 00:00:00 6,0 4,4 5,6 28 15 S 1022,3
16.01.2020 23:00:00 6,0 4,0 5,5 29 16 S 1022,7
16.01.2020 22:00:00 6,0 4,0 5,5 30 16 S 1023,4
16.01.2020 21:00:00 5,9 4,5 5,5 26 14 S 1024,4
16.01.2020 20:00:00 6,0 4,7 5,5 25 13 S 1024,9
16.01.2020 19:00:00 6,0 4,7 5,6 21 11 S 1025,1
16.01.2020 18:00:00 6,2 4,9 5,7 22 12 S 1025,3
16.01.2020 17:00:00 6,2 5,0 5,7 21 11 SSW 1025,4
16.01.2020 16:00:00 6,5 5,0 5,6 19 10 SSW 1025,5
16.01.2020 15:00:00 7,5 5,0 5,7 19 11 SSW 1025,4
16.01.2020 14:00:00 8,4 5,0 5,7 27 14 SW 1025,5
16.01.2020 13:00:00 7,7 4,9 5,7 32 17 SW 1025,5
16.01.2020 12:00:00 7,7 4,9 5,6 29 15 SW 1025,1
16.01.2020 11:00:00 7,4 4,7 5,6 35 19 SW 1025,0
16.01.2020 10:00:00 7,0 4,9 5,6 29 15 SW 1024,7
16.01.2020 09:00:00 6,2 4,7 5,6 35 19 SW 1023,5
16.01.2020 08:00:00 6,4 4,9 5,6 39 21 SW 1022,2
16.01.2020 07:00:00 6,4 4,9 5,7 40 22 SW 1021,7
16.01.2020 06:00:00 6,4 4,9 5,7 39 21 SW 1020,9
16.01.2020 05:00:00 6,4 4,7 5,7 41 22 SW 1020,1
16.01.2020 04:00:00 6,7 5,0 5,6 39 21 WSW 1019,3
16.01.2020 03:00:00 6,4 4,9 5,6 41 22 WSW 1018,5
16.01.2020 02:00:00 6,2 4,5 5,6 41 22 WSW 1017,6
16.01.2020 01:00:00 6,5 4,5 5,6 43 23 WSW 1016,5
16.01.2020 00:00:00 6,5 4,5 5,6 39 21 WSW 1015,6
15.01.2020 23:00:00 6,4 5,0 5,6 31 17 WSW 1014,4
15.01.2020 22:00:00 6,5 4,7 5,6 35 19 W 1013,0
15.01.2020 21:00:00 7,0 5,3 5,6 39 21 W 1011,4
15.01.2020 20:00:00 9,2 5,8 5,5 48 26 WSW 1009,2
15.01.2020 19:00:00 9,5 5,2 5,6 38 21 WSW 1008,4
15.01.2020 18:00:00 9,2 5,2 5,6 35 19 SW 1007,6
15.01.2020 17:00:00 10,7 5,5 5,5 35 19 SSW 1007,0
15.01.2020 16:00:00 9,7 5,7 5,6 26 14 SSW 1006,8
15.01.2020 15:00:00 9,5 5,5 5,6 34 18 SW 1006,7
15.01.2020 14:00:00 10,2 5,4 5,6 42 23 SW 1006,4
15.01.2020 13:00:00 11,2 6,0 5,6 44 24 SW 1006,3
15.01.2020 12:00:00 10,9 5,9 5,5 52 28 SW 1006,0
15.01.2020 11:00:00 10,5 5,7 5,5 50 27 SW 1006,0
15.01.2020 10:00:00 10,7 6,2 5,5 47 26 SSW 1005,3
15.01.2020 09:00:00 10,9 6,5 5,5 52 28 SSW 1004,7
15.01.2020 08:00:00 10,4 6,6 5,5 48 26 SW 1004,1
15.01.2020 07:00:00 10,4 6,9 5,5 51 28 SW 1004,0
15.01.2020 06:00:00 10,4 6,7 5,5 52 28 SW 1003,3
15.01.2020 05:00:00 10,4 7,1 5,5 52 28 SW 1003,0
15.01.2020 04:00:00 9,9 7,2 5,5 48 26 SSW 1003,0
15.01.2020 03:00:00 10,7 6,8 5,5 55 30 SSW 1002,5
15.01.2020 02:00:00 10,7 6,8 5,5 59 32 SW 1002,3
15.01.2020 01:00:00 10,2 7,0 5,5 50 27 SSW 1002,1
15.01.2020 00:00:00 9,2 6,3 5,5 39 21 SSW 1002,1
14.01.2020 23:00:00 9,4 6,3 5,5 42 23 SSW 1001,8
14.01.2020 22:00:00 9,2 6,0 5,5 45 25 SSW 1001,8
14.01.2020 21:00:00 8,9 5,8 5,4 42 23 SSW 1002,0
14.01.2020 20:00:00 8,4 6,7 5,4 41 22 S 1002,8
14.01.2020 19:00:00 8,0 6,7 5,4 36 19 S 1003,4
14.01.2020 18:00:00 7,5 6,4 5,4 24 13 S 1003,9
14.01.2020 17:00:00 7,7 6,2 5,4 26 14 SSW 1004,2
14.01.2020 16:00:00 7,0 6,2 5,4 17 9 S 1004,2
14.01.2020 15:00:00 7,2 5,8 5,4 28 15 SSW 1003,9
14.01.2020 14:00:00 6,7 5,0 5,4 34 18 SW 1003,2
14.01.2020 13:00:00 7,0 6,2 5,4 36 19 WSW 1003,0
14.01.2020 12:00:00 8,2 7,0 5,4 44 24 SW 1001,9
14.01.2020 11:00:00 7,5 6,7 5,4 44 24 SSW 1001,2
14.01.2020 10:00:00 6,9 6,2 5,4 46 25 SSW 1001,1
14.01.2020 09:00:00 6,4 5,7 5,4 44 24 S 1001,3
14.01.2020 08:00:00 6,0 5,3 5,4 46 25 S 1001,3
14.01.2020 07:00:00 6,2 4,2 5,3 44 24 S 1002,0
14.01.2020 06:00:00 6,2 3,9 5,3 46 25 S 1002,4
14.01.2020 05:00:00 5,7 3,5 5,3 48 26 S 1002,9
14.01.2020 04:00:00 5,4 3,5 5,3 42 23 S 1004,7
14.01.2020 03:00:00 5,5 3,4 5,3 44 24 S 1005,8
14.01.2020 02:00:00 5,4 3,4 5,2 46 25 S 1006,4
14.01.2020 01:00:00 5,5 3,4 5,3 39 21 S 1007,6
14.01.2020 00:00:00 5,4 3,7 5,4 37 20 S 1009,3
13.01.2020 23:00:00 5,2 3,9 5,4 34 18 S 1010,4
13.01.2020 22:00:00 5,2 4,4 5,4 32 17 S 1011,3
13.01.2020 21:00:00 5,2 4,5 5,4 31 17 S 1012,0
13.01.2020 20:00:00 5,2 4,6 5,4 26 14 S 1013,2
13.01.2020 19:00:00 5,4 4,8 5,4 18 10 S 1014,0
13.01.2020 18:00:00 5,4 4,7 5,4 21 11 S 1014,5
13.01.2020 17:00:00 5,7 4,7 5,4 16 9 SSW 1014,6
13.01.2020 16:00:00 6,2 4,5 5,4 23 12 SSW 1014,7
13.01.2020 15:00:00 6,0 4,5 5,4 31 17 SW 1015,3
13.01.2020 14:00:00 6,2 4,5 5,3 31 17 SW 1015,8
13.01.2020 13:00:00 6,4 4,6 5,3 26 14 SW 1016,2
13.01.2020 12:00:00 6,2 4,5 5,3 24 13 SSW 1016,9
13.01.2020 11:00:00 6,4 4,4 5,3 29 16 SW 1017,4
13.01.2020 10:00:00 5,7 4,5 5,3 28 15 SW 1017,7
13.01.2020 09:00:00 5,4 4,5 5,3 24 13 SW 1017,3
13.01.2020 08:00:00 5,9 4,4 5,3 31 17 WSW 1017,4
13.01.2020 07:00:00 5,9 5,0 5,4 34 18 WSW 1017,0
13.01.2020 06:00:00 5,9 5,2 5,5 28 15 WSW 1016,7
13.01.2020 05:00:00 6,0 5,1 5,5 28 15 WSW 1016,7
13.01.2020 04:00:00 6,4 5,5 5,5 31 17 W 1016,6
13.01.2020 03:00:00 6,4 5,5 5,5 28 15 W 1016,3
13.01.2020 02:00:00 6,4 5,8 5,5 28 15 W 1015,9
13.01.2020 01:00:00 6,4 6,0 5,5 29 16 W 1015,3
13.01.2020 00:00:00 6,4 5,8 5,5 31 17 W 1014,4
12.01.2020 23:00:00 6,5 5,9 5,5 34 18 W 1013,6
12.01.2020 22:00:00 6,7 6,2 5,5 36 19 W 1012,4
12.01.2020 21:00:00 6,7 6,1 5,5 42 23 WSW 1011,3
12.01.2020 20:00:00 6,5 6,1 5,5 52 28 WSW 1010,1
12.01.2020 19:00:00 6,2 5,6 5,5 46 25 SW 1010,0
12.01.2020 18:00:00 5,9 5,3 5,5 42 23 SW 1010,7
12.01.2020 17:00:00 5,4 4,7 5,5 48 26 SW 1011,3
12.01.2020 16:00:00 5,4 4,7 5,5 40 22 SW 1011,9
12.01.2020 15:00:00 5,2 4,6 5,5 41 22 SW 1012,3
12.01.2020 14:00:00 5,2 4,6 5,5 42 23 SW 1012,9
12.01.2020 13:00:00 5,4 4,5 5,5 44 24 SW 1013,5
12.01.2020 12:00:00 5,4 4,5 5,5 46 25 SW 1013,8

tt = temperature
td = dewpoint
tw = water temperature
ff = wind speed
dd = wind direction
ppp = reduced air pressure

Next stations